岡山グライダークラブ活動状況掲示板あなたは無料カウンター人目の訪問者です

岡山グライダークラブ
岡山市浦安南町639-1 岡南飛行場
 使用機:シャイベ式 SF25C型 ファルケ   JA2330
      ヴァレンティン式17E型 タイフーン  JA2342
 練習日:毎日曜日  クラブルーム:電話 086-265-1810
この掲示板は岡山グライダークラブの活動状況をお知らせする掲示板です。
!!!この掲示板は投稿規制をしています。!!!
クラブ関連各種情報は 岡山グライダークラブクラブルーム      を       .
  ブリーフイング情報は  岡山グライダークラブブリーフィングルーム  をご覧下さい。 .
※写真はクリックすると拡大して見ることが出来ます。
岡南飛行場へのアクセス等は 岡南飛行場管理事務所 をご覧ください。
クラブの ホームページ ができました。

 
08月04日
by OGC at 2019/8/5(月) 00:07:38 No.20190805000606  削除コメント
1706 x 960 x 114,212バイト <この画像は大きいので別画面で表示します>
No.1

08月04日
本日の参加者
  会員      13名
  その他      0名


@本日の様子




METAR
RJBK 040000Z 07003KT 010V110 15KM FEW015CU BKN025CU 30/25 Q1011 A2987
RJOB 040000Z VRB03KT 9999 FEW010 SCT015 29/26 Q1012
RJOT 040000Z VRB04KT 9999 FEW020 29/24 Q1012
RJOA 040000Z 12003KT 080V150 6000 FEW008 BKN013 27/23 Q1013
TAF
RJOB 032311Z 0400/0506 13006KT 9999 FEW025 SCT035
RJOT 032313Z 0400/0506 06008KT 9999 FEW025
RJOA 032308Z 0400/0506 15006KT 9999 FEW015 SCT030
          TEMPO 0400/0401 4000 BR BCFG FEW000 BKN008 BKN015
          BECMG 0409/0411 32005KT
          BECMG 0415/0418 07010KT

本日も猛暑日、暑い中整備を行い、ファルケ2機とも整備完了。タイフーンはまだ整備中。
次回から訓練フライト再開です。整備に汗を流した方お疲れ様です。(次週はお盆休み)


解散    18:30

1番機  16:45離陸 撤収機  17:55着陸 

SF25C JA2330 ファルケ     02Flt.0h45min  
17E   JA2342 タイフーン    00Flt.0h00min  
合計                    02Flt.0h45min

    << 戻る || ホームページ || 最新の掲示板へ